Terminal Aerodrome Forecast
Issued by NWS Austin/San Antonio, TX

Current Version | Previous Version | Text Only | Print | Product List | Glossary On
Versions: 1 2 3 4 5 6 7 8 9 10 11 12 13 14 15 16 17 18 19 20 21 22 23 24 25 26 27
000
FTUS44 KEWX 201700
TAFAUS
TAF
KAUS 201721Z 2018/2124 10008KT P6SM BKN040
     FM210300 14004KT P6SM SCT050 BKN250
     FM210600 VRB03KT P6SM BKN015
     FM211600 05006KT P6SM BKN040=

USA.gov is the U.S. government's official web portal to all federal, state and local government web resources and services.